De Beque, Colorado
Current Conditions -  °F | °C
As of 3:53 PM on Thursday 23 Oct 2014 (Local Time) from KGJT Reporting Station
Clear Clear  
Wind Chill: 70°   Ceiling: Unl
Heat Index: 70°   Visibility: 10mi
Dew Point: 37°   Wind: 6mph
Humidity: 30%   Direction: 330°NNW
Pressure: 30.17"   Gusts: NA
Location:  39.33°N, 108.22°W
Report Text: KGJT 232153Z 33005KT 10SM CLR 21/03 A3017 RMK AO2 SLP176 T02110028
Loading
Personal Weather Stations






























Interactive Weather Map
Tropical Storm Tracking
New forecast layout! Learn more

10-Day Weather Forecast

Advertisements
Track Severe Weather on mobile